Time;durP1;ratioP1;P1;durP2;ratioP2;P2;SDS_P1;SDS_P2;PMS_P1;PMS_P2;Temp;Humidity;BMP_temperature;BMP_pressure;BME280_temperature;BME280_humidity;BME280_pressure;Samples;Min_cycle;Max_cycle;Signal;HPM_P1;HPM_P2
2022/06/17 00:01:09;;;;;;;1.00;0.73;;;21.30;56.70;;;;;;5129400;28;20081;-70
2022/06/17 00:03:35;;;;;;;2.15;0.93;;;21.20;56.70;;;;;;5128156;28;20035;-70
2022/06/17 00:06:03;;;;;;;1.35;1.00;;;21.20;56.70;;;;;;5127968;28;20450;-69
2022/06/17 00:08:33;;;;;;;1.73;1.00;;;21.20;56.70;;;;;;5110917;28;20054;-70
2022/06/17 00:10:59;;;;;;;1.42;0.90;;;21.20;56.70;;;;;;5128800;27;20035;-68
2022/06/17 00:13:25;;;;;;;1.63;0.93;;;21.20;56.70;;;;;;5128837;27;20475;-70
2022/06/17 00:15:51;;;;;;;1.45;0.90;;;21.10;56.70;;;;;;5127208;28;20122;-68
2022/06/17 00:18:18;;;;;;;1.38;0.80;;;21.10;56.70;;;;;;5129089;28;20374;-69
2022/06/17 00:20:46;;;;;;;1.33;0.65;;;21.10;56.70;;;;;;5129267;28;20119;-68
2022/06/17 00:23:13;;;;;;;0.93;0.77;;;21.10;56.80;;;;;;5127411;28;20051;-70
2022/06/17 00:25:40;;;;;;;1.55;1.00;;;21.10;56.70;;;;;;5127634;27;20043;-69
2022/06/17 00:28:11;;;;;;;1.38;1.10;;;21.10;56.70;;;;;;5127211;28;20043;-69
2022/06/17 00:30:36;;;;;;;1.40;1.10;;;21.10;56.80;;;;;;5127523;28;20027;-70
2022/06/17 00:33:06;;;;;;;1.70;1.10;;;21.10;56.80;;;;;;5128414;27;20471;-69
2022/06/17 00:35:39;;;;;;;1.92;1.23;;;21.10;56.90;;;;;;5114419;28;20116;-69
2022/06/17 00:38:05;;;;;;;1.50;0.90;;;21.10;56.90;;;;;;5114981;28;20115;-69
2022/06/17 00:40:34;;;;;;;0.93;0.80;;;21.00;56.80;;;;;;5113941;28;20035;-68
2022/06/17 00:43:04;;;;;;;1.48;1.00;;;21.00;56.90;;;;;;5114746;28;20039;-69
2022/06/17 00:45:40;;;;;;;1.17;0.95;;;21.00;56.80;;;;;;5115119;28;20036;-69
2022/06/17 00:48:13;;;;;;;2.20;1.05;;;21.00;56.80;;;;;;5113360;28;20036;-69
2022/06/17 00:50:48;;;;;;;1.30;0.93;;;20.90;56.80;;;;;;5115088;28;20035;-69
2022/06/17 00:56:03;;;;;;;2.10;1.10;;;21.00;56.90;;;;;;5089044;27;20356;-70
2022/06/17 00:58:34;;;;;;;0.88;0.77;;;20.90;56.90;;;;;;5087735;28;20044;-69
2022/06/17 01:01:01;;;;;;;1.08;0.98;;;20.90;56.80;;;;;;5089295;28;20105;-68
2022/06/17 01:03:36;;;;;;;1.30;1.10;;;20.90;56.90;;;;;;5089157;28;20480;-68
2022/06/17 01:06:09;;;;;;;2.05;1.10;;;20.90;56.90;;;;;;5088069;28;20423;-68
2022/06/17 01:11:29;;;;;;;1.27;0.98;;;20.90;56.90;;;;;;5087423;28;20078;-70
2022/06/17 01:13:59;;;;;;;1.45;0.75;;;20.80;56.90;;;;;;5088526;28;20440;-69
2022/06/17 01:16:30;;;;;;;1.17;0.95;;;20.80;56.90;;;;;;5088845;28;20031;-69
2022/06/17 01:19:07;;;;;;;1.33;0.95;;;20.80;56.90;;;;;;5086769;28;20581;-69
2022/06/17 01:21:39;;;;;;;1.42;0.80;;;20.80;56.90;;;;;;5089139;28;20163;-69
2022/06/17 01:24:07;;;;;;;1.23;0.98;;;20.80;57.00;;;;;;5087561;28;20056;-68
2022/06/17 01:26:34;;;;;;;1.50;0.95;;;20.80;56.90;;;;;;5089028;28;20119;-70
2022/06/17 01:29:00;;;;;;;1.38;0.85;;;20.80;56.90;;;;;;5087349;28;20099;-69
2022/06/17 01:31:25;;;;;;;1.20;0.95;;;20.70;56.90;;;;;;5087396;28;20440;-70
2022/06/17 01:33:51;;;;;;;1.60;0.77;;;20.70;56.90;;;;;;5088629;28;20036;-69
2022/06/17 01:36:22;;;;;;;1.63;0.95;;;20.80;57.00;;;;;;5087342;28;20119;-69
2022/06/17 01:38:52;;;;;;;1.27;0.80;;;20.70;56.90;;;;;;5087125;28;20036;-69
2022/06/17 01:41:23;;;;;;;1.33;0.98;;;20.70;56.90;;;;;;5087643;28;20052;-69
2022/06/17 01:43:59;;;;;;;2.38;1.40;;;20.70;56.90;;;;;;5087157;28;20123;-69
2022/06/17 01:46:42;;;;;;;1.23;0.75;;;20.70;57.00;;;;;;5087109;28;20085;-68
2022/06/17 01:52:07;;;;;;;1.48;0.90;;;20.70;57.00;;;;;;5152603;27;1161426;-69
2022/06/17 01:54:44;;;;;;;1.40;0.82;;;20.60;57.00;;;;;;5152572;27;20530;-69
2022/06/17 01:57:14;;;;;;;1.70;0.98;;;20.70;57.00;;;;;;5152919;27;20042;-70
2022/06/17 01:59:45;;;;;;;1.40;1.20;;;20.60;57.00;;;;;;5152970;27;20079;-70
2022/06/17 02:02:13;;;;;;;1.15;1.02;;;20.60;57.00;;;;;;5153108;27;20027;-70
2022/06/17 02:04:46;;;;;;;1.33;0.95;;;20.60;57.10;;;;;;5153155;27;20037;-69
2022/06/17 02:09:54;;;;;;;1.73;1.05;;;20.60;57.10;;;;;;5129789;27;20346;-69
2022/06/17 02:12:21;;;;;;;1.02;0.82;;;20.60;57.10;;;;;;5145561;27;20032;-69
2022/06/17 02:14:48;;;;;;;1.02;0.80;;;20.60;57.10;;;;;;5128462;28;20470;-69
2022/06/17 02:17:15;;;;;;;1.45;1.20;;;20.50;57.10;;;;;;5128992;28;20051;-69
2022/06/17 02:19:43;;;;;;;1.35;0.98;;;20.60;57.20;;;;;;5128514;28;20044;-69
2022/06/17 02:24:50;;;;;;;0.98;0.85;;;20.60;57.20;;;;;;5130041;27;20350;-70
2022/06/17 02:27:17;;;;;;;2.10;1.10;;;20.50;57.10;;;;;;5128749;28;20043;-70
2022/06/17 02:29:50;;;;;;;1.38;1.15;;;20.50;57.20;;;;;;5128594;28;20039;-69
2022/06/17 02:32:16;;;;;;;1.65;1.05;;;20.50;57.20;;;;;;5128461;27;20070;-70
2022/06/17 02:34:51;;;;;;;1.35;1.02;;;20.50;57.10;;;;;;5128328;28;20047;-68
2022/06/17 02:37:18;;;;;;;1.30;1.00;;;20.50;57.20;;;;;;5128424;28;20047;-69
2022/06/17 02:39:49;;;;;;;0.95;0.85;;;20.50;57.20;;;;;;5129789;27;20118;-70
2022/06/17 02:42:18;;;;;;;;;;;20.50;57.10;;;;;;5129039;28;20118;-69
2022/06/17 02:44:48;;;;;;;1.58;0.90;;;20.50;57.20;;;;;;5145807;27;19999;-70
2022/06/17 02:47:14;;;;;;;2.22;0.85;;;20.50;57.20;;;;;;5128545;28;20043;-68
2022/06/17 02:49:42;;;;;;;1.15;0.95;;;20.50;57.10;;;;;;5128098;28;20042;-68
2022/06/17 02:52:16;;;;;;;1.60;1.10;;;20.50;57.10;;;;;;5129059;27;20039;-69
2022/06/17 02:54:48;;;;;;;1.20;0.98;;;20.50;57.20;;;;;;5128262;28;20076;-69
2022/06/17 02:57:25;;;;;;;1.92;1.45;;;20.40;57.10;;;;;;5128124;28;20050;-69
2022/06/17 03:02:50;;;;;;;1.38;1.27;;;20.40;57.20;;;;;;5089293;28;20425;-70
2022/06/17 03:05:26;;;;;;;1.20;1.10;;;20.40;57.20;;;;;;5089515;28;20046;-69
2022/06/17 03:07:53;;;;;;;2.80;1.10;;;20.40;57.20;;;;;;5088081;28;20040;-69
2022/06/17 03:10:33;;;;;;;1.17;0.93;;;20.40;57.10;;;;;;5087821;28;20036;-69
2022/06/17 03:13:03;;;;;;;1.38;1.17;;;20.40;57.20;;;;;;5087369;28;20048;-68
2022/06/17 03:15:29;;;;;;;;;;;20.40;57.20;;;;;;5088273;28;20044;-68
2022/06/17 03:17:55;;;;;;;1.10;0.90;;;20.30;57.30;;;;;;5088992;28;19966;-69
2022/06/17 03:20:24;;;;;;;1.55;1.30;;;20.40;57.20;;;;;;5087568;28;20127;-69
2022/06/17 03:22:58;;;;;;;2.08;1.20;;;20.40;57.20;;;;;;5087702;28;20036;-69
2022/06/17 03:25:31;;;;;;;1.77;1.30;;;20.40;57.30;;;;;;5104885;28;20048;-69
2022/06/17 03:28:02;;;;;;;2.05;1.40;;;20.40;57.30;;;;;;5088191;28;20047;-69
2022/06/17 03:30:33;;;;;;;2.08;1.02;;;20.40;57.30;;;;;;5087559;28;20047;-70
2022/06/17 03:35:59;;;;;;;1.48;1.20;;;20.40;57.30;;;;;;5150456;27;20562;-69
2022/06/17 03:38:49;;;;;;;1.20;1.10;;;20.40;57.30;;;;;;5129032;28;20085;-69
2022/06/17 03:41:18;;;;;;;;;;;20.40;57.30;;;;;;5129385;28;20071;-69
2022/06/17 03:43:51;;;;;;;1.52;1.30;;;20.40;57.40;;;;;;5128928;28;19915;-70
2022/06/17 03:46:19;;;;;;;1.80;1.60;;;20.30;57.30;;;;;;5128769;28;20047;-69
2022/06/17 03:51:27;;;;;;;1.45;1.27;;;20.40;57.40;;;;;;5109226;27;20858;-69
2022/06/17 03:53:53;;;;;;;2.47;1.50;;;20.40;57.30;;;;;;5091007;28;20047;-69
2022/06/17 03:56:27;;;;;;;1.98;1.05;;;20.40;57.40;;;;;;5091241;28;20043;-68
2022/06/17 03:58:56;;;;;;;1.50;1.40;;;20.40;57.40;;;;;;5091156;28;20105;-69
2022/06/17 04:04:09;;;;;;;1.27;1.00;;;20.30;57.30;;;;;;5130079;27;20410;-69
2022/06/17 04:06:39;;;;;;;2.20;1.10;;;20.40;57.40;;;;;;5130099;27;20492;-69
2022/06/17 04:09:14;;;;;;;1.60;1.17;;;20.40;57.40;;;;;;5128763;28;20395;-69
2022/06/17 04:11:46;;;;;;;1.33;1.23;;;20.40;57.30;;;;;;5128416;28;20445;-69
2022/06/17 04:14:28;;;;;;;1.88;1.05;;;20.40;57.30;;;;;;5127940;28;20071;-69
2022/06/17 04:17:17;;;;;;;1.70;1.17;;;20.40;57.30;;;;;;5128411;28;20046;-69
2022/06/17 04:19:46;;;;;;;2.03;1.40;;;20.40;57.30;;;;;;5128409;28;20043;-69
2022/06/17 04:22:22;;;;;;;1.90;1.20;;;20.50;57.30;;;;;;5129008;28;20039;-68
2022/06/17 04:24:53;;;;;;;2.00;1.10;;;20.40;57.20;;;;;;5128582;28;20121;-69
2022/06/17 04:27:21;;;;;;;1.50;1.00;;;20.40;57.20;;;;;;5128588;28;20043;-69
2022/06/17 04:29:51;;;;;;;2.08;1.23;;;20.40;57.20;;;;;;5128148;28;20123;-69
2022/06/17 04:32:25;;;;;;;1.73;1.25;;;20.40;57.10;;;;;;5128056;28;20459;-69
2022/06/17 04:34:51;;;;;;;1.30;1.10;;;20.40;57.10;;;;;;5129002;27;20036;-69
2022/06/17 04:37:20;;;;;;;1.52;1.25;;;20.40;57.10;;;;;;5129181;28;20046;-69
2022/06/17 04:39:58;;;;;;;1.40;1.27;;;20.40;57.10;;;;;;5129317;27;20137;-69
2022/06/17 04:42:41;;;;;;;1.80;1.23;;;20.40;57.10;;;;;;5128102;28;20122;-68
2022/06/17 04:47:59;;;;;;;3.17;1.20;;;20.40;57.00;;;;;;5130049;27;20378;-69
2022/06/17 04:50:27;;;;;;;1.98;1.52;;;20.40;57.00;;;;;;5128417;27;20043;-69
2022/06/17 04:52:55;;;;;;;1.27;0.95;;;20.50;57.00;;;;;;5128239;28;20047;-69
2022/06/17 04:55:34;;;;;;;2.00;1.30;;;20.40;56.90;;;;;;5127908;28;20080;-69
2022/06/17 04:58:00;;;;;;;2.15;1.88;;;20.50;57.00;;;;;;5128556;27;20162;-69
2022/06/17 05:00:27;;;;;;;2.33;1.73;;;20.50;56.90;;;;;;5128568;28;20112;-69
2022/06/17 05:02:54;;;;;;;1.50;1.30;;;20.50;57.00;;;;;;5128851;28;20054;-68
2022/06/17 05:05:29;;;;;;;1.33;1.15;;;20.50;56.90;;;;;;5128770;28;20043;-68
2022/06/17 05:07:56;;;;;;;1.00;0.75;;;20.50;56.90;;;;;;5128402;28;20066;-69
2022/06/17 05:10:32;;;;;;;1.83;1.27;;;20.50;56.80;;;;;;5129430;28;20491;-69
2022/06/17 05:13:09;;;;;;;3.00;1.48;;;20.50;56.90;;;;;;5128265;27;20043;-69
2022/06/17 05:15:36;;;;;;;2.10;1.55;;;20.50;56.80;;;;;;5128024;28;20054;-69
2022/06/17 05:18:02;;;;;;;2.25;1.50;;;20.50;56.80;;;;;;5128125;28;20043;-69
2022/06/17 05:20:28;;;;;;;2.08;1.25;;;20.60;56.80;;;;;;5128385;28;20031;-69
2022/06/17 05:22:59;;;;;;;1.25;1.13;;;20.60;56.80;;;;;;5128677;28;20188;-68
2022/06/17 05:25:28;;;;;;;1.90;1.35;;;20.60;56.80;;;;;;5129466;28;20185;-69
2022/06/17 05:27:54;;;;;;;1.85;1.60;;;20.60;56.70;;;;;;5127913;28;20047;-69
2022/06/17 05:30:20;;;;;;;1.55;1.40;;;20.60;56.70;;;;;;5111131;28;20027;-69
2022/06/17 05:32:51;;;;;;;1.60;1.42;;;20.60;56.70;;;;;;5127876;28;20500;-69
2022/06/17 05:35:18;;;;;;;2.28;1.60;;;20.60;56.70;;;;;;5127838;27;20462;-69
2022/06/17 05:37:44;;;;;;;2.08;1.35;;;20.60;56.60;;;;;;5127749;27;20043;-70
2022/06/17 05:40:10;;;;;;;2.50;1.45;;;20.60;56.60;;;;;;5127892;28;20452;-69
2022/06/17 05:42:38;;;;;;;2.95;1.67;;;20.60;56.60;;;;;;5129267;28;20501;-69
2022/06/17 05:45:08;;;;;;;1.42;0.90;;;20.70;56.70;;;;;;5127690;28;20118;-69
2022/06/17 05:47:34;;;;;;;1.50;1.23;;;20.70;56.60;;;;;;5125272;27;20383;-65
2022/06/17 05:49:59;;;;;;;0.95;0.60;;;20.70;56.60;;;;;;5100962;27;20125;-68
2022/06/17 05:52:26;;;;;;;2.25;0.98;;;20.70;56.50;;;;;;5114566;27;20390;-65
2022/06/17 05:55:00;;;;;;;2.97;1.17;;;20.70;56.50;;;;;;5116832;28;20035;-65
2022/06/17 05:57:26;;;;;;;2.80;2.05;;;20.70;56.40;;;;;;5116928;27;20093;-65
2022/06/17 05:59:51;;;;;;;3.45;1.52;;;20.70;56.40;;;;;;5106610;28;20031;-65
2022/06/17 06:02:20;;;;;;;2.92;1.80;;;20.70;56.50;;;;;;5105610;28;20334;-66
2022/06/17 06:04:45;;;;;;;4.32;2.30;;;20.70;56.70;;;;;;5107671;28;20511;-65
2022/06/17 06:07:11;;;;;;;2.45;2.00;;;20.70;56.70;;;;;;5106113;28;20346;-65
2022/06/17 06:09:38;;;;;;;4.22;2.20;;;20.80;56.90;;;;;;5106444;28;20399;-67
2022/06/17 06:12:05;;;;;;;6.13;2.63;;;20.80;57.00;;;;;;5106238;28;20039;-66
2022/06/17 06:14:30;;;;;;;3.47;1.75;;;20.80;57.10;;;;;;5108517;28;20440;-66
2022/06/17 06:16:56;;;;;;;5.13;2.10;;;20.80;57.00;;;;;;5109565;28;20130;-66
2022/06/17 06:19:21;;;;;;;1.98;1.60;;;20.80;57.00;;;;;;5107628;28;20250;-66
2022/06/17 06:21:47;;;;;;;2.92;2.13;;;20.90;57.00;;;;;;5107865;28;20114;-66
2022/06/17 06:24:13;;;;;;;2.38;1.90;;;20.90;57.10;;;;;;5109383;28;20047;-70
2022/06/17 06:26:40;;;;;;;3.80;2.25;;;20.90;57.10;;;;;;5106287;28;20031;-68
2022/06/17 06:29:06;;;;;;;3.90;2.42;;;20.90;57.20;;;;;;5101277;28;20506;-69
2022/06/17 06:31:37;;;;;;;4.10;1.50;;;20.90;57.20;;;;;;5101518;28;20765;-69
2022/06/17 06:34:03;;;;;;;5.97;1.90;;;20.90;57.20;;;;;;5093003;28;20115;-68
2022/06/17 06:36:29;;;;;;;3.42;2.00;;;20.90;57.20;;;;;;5090789;28;20047;-68
2022/06/17 06:38:54;;;;;;;2.35;2.05;;;20.90;57.10;;;;;;5092711;28;20101;-69
2022/06/17 06:41:21;;;;;;;3.97;2.10;;;20.90;57.10;;;;;;5091353;27;20570;-67
2022/06/17 06:43:48;;;;;;;2.67;1.95;;;21.00;57.10;;;;;;5092579;27;20122;-68
2022/06/17 06:46:16;;;;;;;2.83;1.95;;;21.00;57.00;;;;;;5092998;27;20055;-68
2022/06/17 06:48:42;;;;;;;3.90;2.50;;;21.00;56.90;;;;;;5095219;27;20464;-69
2022/06/17 06:51:08;;;;;;;4.38;2.08;;;21.10;57.00;;;;;;5111013;27;20032;-68
2022/06/17 06:53:34;;;;;;;6.03;2.25;;;21.10;57.10;;;;;;5100675;28;20081;-69
2022/06/17 06:56:00;;;;;;;5.78;2.65;;;21.10;57.20;;;;;;5094512;27;20453;-68
2022/06/17 06:58:26;;;;;;;5.15;2.72;;;21.20;57.20;;;;;;5094547;28;20483;-69
2022/06/17 07:00:56;;;;;;;4.18;2.33;;;21.30;57.30;;;;;;5094136;28;20036;-68
2022/06/17 07:03:25;;;;;;;7.60;3.47;;;21.30;57.30;;;;;;5089849;28;20365;-68
2022/06/17 07:05:55;;;;;;;6.65;2.33;;;21.30;57.20;;;;;;5092263;28;20059;-69
2022/06/17 07:08:24;;;;;;;3.50;2.35;;;21.40;57.20;;;;;;5098526;28;20036;-69
2022/06/17 07:10:53;;;;;;;7.28;2.80;;;21.40;57.10;;;;;;5097776;28;20485;-69
2022/06/17 07:13:21;;;;;;;3.42;2.30;;;21.50;57.00;;;;;;5105439;27;20400;-71
2022/06/17 07:15:47;;;;;;;4.75;2.70;;;21.50;57.00;;;;;;5091171;28;20045;-69
2022/06/17 07:18:17;;;;;;;4.00;2.55;;;21.50;57.00;;;;;;5094087;27;20648;-69
2022/06/17 07:20:45;;;;;;;;;;;21.60;57.10;;;;;;5094325;28;20064;-68
2022/06/17 07:23:14;;;;;;;4.28;2.08;;;21.60;57.30;;;;;;5089435;28;19930;-69
2022/06/17 07:25:41;;;;;;;7.50;2.35;;;21.60;56.90;;;;;;5088895;28;20054;-68
2022/06/17 07:28:07;;;;;;;9.95;3.13;;;21.60;56.90;;;;;;5085597;27;20098;-71
2022/06/17 07:30:34;;;;;;;6.15;2.33;;;21.70;56.90;;;;;;5071640;27;20938;-75
2022/06/17 07:33:00;;;;;;;4.93;2.15;;;21.70;56.70;;;;;;5090035;28;20517;-66
2022/06/17 07:35:26;;;;;;;6.85;2.38;;;21.80;56.70;;;;;;5104553;27;20059;-69
2022/06/17 07:40:39;;;;;;;7.78;2.15;;;21.80;56.50;;;;;;5095807;27;20113;-67
2022/06/17 07:43:04;;;;;;;6.07;1.77;;;21.80;56.40;;;;;;5091718;28;20501;-69
2022/06/17 07:45:32;;;;;;;4.95;1.75;;;21.80;56.20;;;;;;5089580;28;20039;-67
2022/06/17 07:47:58;;;;;;;5.10;1.77;;;21.90;56.30;;;;;;5076657;28;20063;-68
2022/06/17 07:50:30;;;;;;;4.85;2.10;;;21.90;56.40;;;;;;5092664;28;20039;-68
2022/06/17 07:52:55;;;;;;;4.32;2.00;;;22.00;56.20;;;;;;5089007;27;20425;-68
2022/06/17 07:55:22;;;;;;;4.50;1.25;;;22.10;56.10;;;;;;5090300;28;20753;-67
2022/06/17 07:57:51;;;;;;;3.00;1.38;;;22.00;55.80;;;;;;5082993;28;20051;-67
2022/06/17 08:02:59;;;;;;;3.58;1.92;;;22.10;55.60;;;;;;5128566;27;1215641;-67
2022/06/17 08:05:24;;;;;;;4.38;1.50;;;22.20;56.30;;;;;;5136318;27;20035;-67
2022/06/17 08:07:52;;;;;;;6.38;2.08;;;22.20;55.30;;;;;;5132958;27;20038;-68
2022/06/17 08:10:20;;;;;;;4.13;1.30;;;22.20;55.30;;;;;;5130336;27;20062;-66
2022/06/17 08:12:46;;;;;;;4.13;1.20;;;22.30;55.10;;;;;;5132144;27;20515;-66
2022/06/17 08:15:12;;;;;;;3.63;1.20;;;22.30;55.00;;;;;;5130620;27;20204;-66
2022/06/17 08:17:39;;;;;;;1.98;1.02;;;22.30;54.80;;;;;;5131835;27;20050;-68
2022/06/17 08:20:12;;;;;;;2.78;1.30;;;22.40;55.00;;;;;;5146968;27;20244;-69
2022/06/17 08:22:38;;;;;;;7.45;1.50;;;22.40;55.00;;;;;;5129955;27;20042;-69
2022/06/17 08:25:07;;;;;;;3.80;0.95;;;22.50;55.00;;;;;;5132394;27;20045;-68
2022/06/17 08:27:39;;;;;;;7.00;1.40;;;22.50;54.80;;;;;;5150610;27;20434;-73
2022/06/17 08:30:06;;;;;;;5.25;1.30;;;22.60;54.70;;;;;;5153478;27;20049;-69
2022/06/17 08:32:53;;;;;;;4.68;1.30;;;22.60;54.70;;;;;;5131135;27;20038;-69
2022/06/17 08:35:22;;;;;;;2.83;1.10;;;22.70;54.70;;;;;;5135873;27;20031;-70
2022/06/17 08:37:51;;;;;;;3.45;0.77;;;22.70;54.60;;;;;;5134457;27;20477;-69
2022/06/17 08:51:38;;;;;;;2.53;0.68;;;22.90;54.30;;;;;;5098030;27;20493;-70
2022/06/17 08:54:18;;;;;;;2.53;0.85;;;23.10;52.90;;;;;;5091597;28;20488;-70
2022/06/17 08:56:55;;;;;;;3.60;0.67;;;23.10;52.80;;;;;;5091260;28;20597;-71
2022/06/17 08:59:44;;;;;;;2.85;0.60;;;23.20;52.90;;;;;;5106628;28;20328;-72
2022/06/17 09:11:19;;;;;;;2.58;0.70;;;23.10;53.00;;;;;;5005391;27;4080653;-68
2022/06/17 09:17:13;;;;;;;1.48;0.50;;;23.10;53.20;;;;;;5068809;27;20372;-68
2022/06/17 09:19:46;;;;;;;4.70;0.57;;;23.10;53.30;;;;;;5071663;28;20048;-67
2022/06/17 09:22:30;;;;;;;4.55;1.05;;;23.10;53.20;;;;;;5070217;28;20047;-70
2022/06/17 09:25:04;;;;;;;2.65;0.80;;;23.20;53.10;;;;;;5073050;28;20040;-71
2022/06/17 09:27:35;;;;;;;2.25;0.73;;;23.20;53.00;;;;;;5056282;28;20048;-71
2022/06/17 09:33:10;;;;;;;2.28;0.80;;;23.40;52.70;;;;;;5069511;28;20466;-70
2022/06/17 09:35:43;;;;;;;3.78;0.90;;;23.50;52.40;;;;;;5060755;28;20063;-68
2022/06/17 09:41:13;;;;;;;6.00;0.90;;;23.60;52.10;;;;;;5160772;27;20557;-70
2022/06/17 09:44:04;;;;;;;6.07;1.15;;;23.70;52.10;;;;;;5105980;27;20190;-69
2022/06/17 09:46:57;;;;;;;2.53;0.60;;;23.60;52.30;;;;;;5128515;27;20035;-68
2022/06/17 09:55:01;;;;;;;3.13;0.63;;;23.60;52.40;;;;;;5100183;27;20458;-71
2022/06/17 09:57:50;;;;;;;3.22;0.68;;;23.70;52.40;;;;;;5101338;28;20044;-73
2022/06/17 10:00:23;;;;;;;2.60;1.00;;;23.80;52.50;;;;;;5091545;28;20060;-69
2022/06/17 10:02:57;;;;;;;3.05;0.80;;;23.80;52.30;;;;;;5091845;28;20048;-71
2022/06/17 10:06:03;;;;;;;4.55;0.93;;;23.80;52.10;;;;;;5090856;28;20087;-69
2022/06/17 10:09:08;;;;;;;4.57;1.00;;;23.90;52.30;;;;;;5094125;28;20432;-68
2022/06/17 10:25:33;;;;;;;5.90;1.85;;;23.90;51.50;;;;;;5113130;27;20358;-67
2022/06/17 10:28:20;;;;;;;6.80;1.13;;;24.00;51.40;;;;;;5115931;27;20323;-66
2022/06/17 10:31:14;;;;;;;2.03;1.00;;;24.00;51.20;;;;;;5110046;27;20801;-67
2022/06/17 10:33:41;;;;;;;5.82;0.82;;;24.00;51.10;;;;;;5107376;28;20036;-69
2022/06/17 10:36:07;;;;;;;2.90;0.82;;;24.10;50.80;;;;;;5118760;27;20517;-69
2022/06/17 10:38:42;;;;;;;2.88;0.70;;;24.10;50.50;;;;;;5112639;27;20035;-68
2022/06/17 10:41:10;;;;;;;1.95;0.98;;;24.10;50.50;;;;;;5107263;27;20135;-69
2022/06/17 10:43:40;;;;;;;2.80;0.85;;;24.10;50.30;;;;;;5109484;27;20479;-68
2022/06/17 10:46:17;;;;;;;2.80;0.90;;;24.10;50.20;;;;;;5109706;27;20044;-69
2022/06/17 10:48:48;;;;;;;4.65;1.02;;;24.10;50.20;;;;;;5105738;27;20518;-72
2022/06/17 10:51:15;;;;;;;3.88;0.98;;;24.10;50.30;;;;;;5110344;28;20481;-73
2022/06/17 10:53:46;;;;;;;4.32;1.05;;;24.10;50.50;;;;;;5102588;27;20044;-71
2022/06/17 10:56:38;;;;;;;5.88;0.90;;;24.10;50.80;;;;;;5121114;27;20039;-72
2022/06/17 10:59:08;;;;;;;4.55;1.17;;;24.10;51.00;;;;;;5122429;27;20044;-73
2022/06/17 11:01:52;;;;;;;2.90;0.75;;;24.00;51.00;;;;;;5114220;27;20406;-71
2022/06/17 11:04:23;;;;;;;2.30;0.90;;;24.00;51.20;;;;;;5126373;27;20111;-70
2022/06/17 11:09:40;;;;;;;6.32;1.15;;;24.00;51.40;;;;;;5085183;27;20510;-69
2022/06/17 11:12:16;;;;;;;4.75;0.73;;;24.00;51.30;;;;;;5058183;28;20467;-70
2022/06/17 11:17:42;;;;;;;4.93;1.17;;;24.10;51.50;;;;;;5108806;27;20392;-68
2022/06/17 11:25:40;;;;;;;3.08;0.90;;;24.00;51.50;;;;;;5123092;27;1176754;-66
2022/06/17 11:30:53;;;;;;;3.75;0.98;;;24.10;52.10;;;;;;5065930;27;20419;-66
2022/06/17 11:33:24;;;;;;;2.03;0.90;;;24.10;51.00;;;;;;5054155;28;20122;-70
2022/06/17 11:36:13;;;;;;;4.10;0.90;;;24.10;51.80;;;;;;5048716;28;20089;-68
2022/06/17 11:38:39;;;;;;;6.72;0.85;;;24.20;51.00;;;;;;5053624;28;20098;-67
2022/06/17 11:41:05;;;;;;;3.00;0.80;;;24.10;51.10;;;;;;5052553;28;20414;-69
2022/06/17 11:43:38;;;;;;;3.92;0.95;;;24.20;51.30;;;;;;5068889;28;20041;-71
2022/06/17 11:46:10;;;;;;;5.80;1.20;;;24.20;51.40;;;;;;5052882;28;20045;-66
2022/06/17 11:48:42;;;;;;;3.58;0.82;;;24.30;51.30;;;;;;5055378;28;20063;-67
2022/06/17 11:51:12;;;;;;;2.75;1.40;;;24.40;51.40;;;;;;5053591;28;20115;-66
2022/06/17 11:53:58;;;;;;;;;;;24.40;51.10;;;;;;5051700;28;20053;-66
2022/06/17 11:59:19;;;;;;;5.40;1.08;;;24.40;51.10;;;;;;5092452;27;1169338;-71
2022/06/17 12:13:30;;;;;;;9.07;1.83;;;24.30;51.10;;;;;;5180766;27;20414;-67
2022/06/17 12:16:23;;;;;;;2.40;1.13;;;24.30;51.70;;;;;;5151141;27;20054;-68
2022/06/17 12:18:54;;;;;;;3.00;1.02;;;24.30;51.60;;;;;;5176042;27;20129;-67
2022/06/17 12:24:39;;;;;;;4.25;1.30;;;24.30;51.50;;;;;;5052257;28;21167;-69
2022/06/17 12:35:16;;;;;;;3.55;0.80;;;24.40;51.20;;;;;;5079700;27;20431;-71
2022/06/17 12:37:55;;;;;;;2.70;1.10;;;24.50;50.30;;;;;;5064470;28;20158;-73
2022/06/17 12:46:08;;;;;;;3.47;1.45;;;24.50;50.40;;;;;;5097175;27;20432;-69
2022/06/17 13:00:27;;;;;;;3.40;1.20;;;24.40;52.00;;;;;;5092351;27;1856972;-68
2022/06/17 13:05:45;;;;;;;2.75;1.40;;;24.40;51.30;;;;;;5112822;27;20398;-68
2022/06/17 13:14:35;;;;;;;5.32;1.17;;;24.40;51.50;;;;;;5122661;27;20383;-72
2022/06/17 13:17:34;;;;;;;3.35;0.93;;;24.40;51.40;;;;;;5107338;28;20073;-72
2022/06/17 13:23:04;;;;;;;6.03;1.05;;;24.40;51.40;;;;;;5135940;27;1163828;-71
2022/06/17 13:31:21;;;;;;;2.70;1.08;;;24.30;51.30;;;;;;5137803;27;1173165;-70
2022/06/17 13:36:35;;;;;;;1.75;0.98;;;24.30;51.10;;;;;;5124599;27;20399;-71
2022/06/17 13:39:10;;;;;;;2.00;0.90;;;24.30;51.30;;;;;;5109545;28;20043;-72
2022/06/17 13:41:46;;;;;;;2.97;0.93;;;24.30;51.40;;;;;;5109149;28;20124;-68
2022/06/17 14:09:29;;;;;;;2.80;0.90;;;24.80;49.30;;;;;;5124570;27;20385;-66
2022/06/17 14:11:54;;;;;;;5.38;1.05;;;25.00;48.70;;;;;;5108412;28;20062;-69
2022/06/17 14:20:13;;;;;;;2.38;0.85;;;25.00;48.60;;;;;;5125142;27;20432;-69
2022/06/17 14:25:57;;;;;;;0.90;0.80;;;24.90;49.10;;;;;;5151304;27;1158423;-69
2022/06/17 14:31:32;;;;;;;1.92;0.60;;;24.70;49.20;;;;;;5087828;27;20727;-69
2022/06/17 14:34:03;;;;;;;3.00;0.70;;;24.60;49.30;;;;;;5087130;28;20044;-69
2022/06/17 14:37:03;;;;;;;1.80;0.90;;;24.60;49.40;;;;;;5085581;28;20036;-69
2022/06/17 14:48:18;;;;;;;3.10;0.75;;;24.60;49.60;;;;;;5148117;27;1169242;-69
2022/06/17 14:53:37;;;;;;;1.20;0.75;;;24.60;49.70;;;;;;5106789;27;20380;-69
2022/06/17 14:56:29;;;;;;;1.35;0.93;;;24.50;50.00;;;;;;5097082;28;20072;-69
2022/06/17 14:58:59;;;;;;;2.08;0.60;;;24.50;50.00;;;;;;5094312;28;20492;-70
2022/06/17 15:01:55;;;;;;;2.15;0.50;;;24.50;50.00;;;;;;5096954;28;20062;-69
2022/06/17 15:04:39;;;;;;;1.38;0.73;;;24.40;50.00;;;;;;5095099;28;20043;-70
2022/06/17 15:07:16;;;;;;;1.55;0.70;;;24.50;50.80;;;;;;5095666;28;20464;-69
2022/06/17 15:09:50;;;;;;;1.80;0.80;;;24.50;50.10;;;;;;5094146;28;20582;-69
2022/06/17 15:12:24;;;;;;;1.50;0.50;;;24.40;50.10;;;;;;5088671;28;20573;-69
2022/06/17 15:14:54;;;;;;;1.25;0.75;;;24.40;50.20;;;;;;5107934;28;20503;-69
2022/06/17 15:17:31;;;;;;;1.10;0.40;;;24.40;50.20;;;;;;5107783;28;20828;-69
2022/06/17 15:20:03;;;;;;;1.30;0.60;;;24.40;50.20;;;;;;5107659;28;20036;-69
2022/06/17 15:22:33;;;;;;;0.75;0.60;;;24.40;50.30;;;;;;5089516;28;20115;-69
2022/06/17 15:25:25;;;;;;;2.13;0.60;;;24.30;50.30;;;;;;5106488;28;20488;-69
2022/06/17 15:30:39;;;;;;;1.88;0.68;;;24.30;50.40;;;;;;5129086;27;20140;-69
2022/06/17 15:33:26;;;;;;;1.20;0.63;;;24.30;50.40;;;;;;5128066;28;20043;-70
2022/06/17 15:35:58;;;;;;;1.40;0.80;;;24.30;50.50;;;;;;5127623;28;20050;-69
2022/06/17 15:41:32;;;;;;;1.33;0.70;;;24.30;50.50;;;;;;5128443;27;20861;-69
2022/06/17 15:44:03;;;;;;;1.00;0.50;;;24.30;50.50;;;;;;5126999;28;20040;-69
2022/06/17 15:46:31;;;;;;;1.52;0.47;;;24.30;50.60;;;;;;5126874;28;20487;-69
2022/06/17 15:49:03;;;;;;;1.00;0.70;;;24.30;50.60;;;;;;5128622;27;20377;-69
2022/06/17 15:51:32;;;;;;;1.88;0.60;;;24.20;50.60;;;;;;5128347;28;20050;-69
2022/06/17 15:53:59;;;;;;;1.75;0.50;;;24.30;50.70;;;;;;5127695;28;20045;-68
2022/06/17 15:56:36;;;;;;;1.05;0.70;;;24.30;50.80;;;;;;5127444;28;20043;-70
2022/06/17 15:59:08;;;;;;;1.33;0.55;;;24.30;50.80;;;;;;5127197;28;20438;-69
2022/06/17 16:01:55;;;;;;;1.58;0.65;;;24.30;50.80;;;;;;5128351;27;20055;-69
2022/06/17 16:04:35;;;;;;;0.90;0.57;;;24.30;50.80;;;;;;5127146;28;20110;-69
2022/06/17 16:07:19;;;;;;;1.52;0.60;;;24.30;50.80;;;;;;5127278;28;20040;-68
2022/06/17 16:09:51;;;;;;;2.17;0.50;;;24.30;50.80;;;;;;5127681;28;20039;-68
2022/06/17 16:12:30;;;;;;;0.73;0.50;;;24.30;50.80;;;;;;5128228;28;20054;-69
2022/06/17 16:17:47;;;;;;;0.93;0.52;;;24.30;50.80;;;;;;5088094;27;20795;-69
2022/06/17 16:22:53;;;;;;;2.53;0.50;;;24.30;50.80;;;;;;5085988;27;20386;-69
2022/06/17 16:28:03;;;;;;;1.85;0.40;;;24.30;50.80;;;;;;5128880;27;20387;-69
2022/06/17 16:30:41;;;;;;;1.60;0.70;;;24.30;50.80;;;;;;5145173;27;20051;-69
2022/06/17 16:33:24;;;;;;;1.00;0.70;;;24.30;50.80;;;;;;5128458;28;20112;-69
2022/06/17 16:44:25;;;;;;;1.20;0.57;;;24.30;50.80;;;;;;5087824;27;20359;-69
2022/06/17 16:54:59;;;;;;;0.90;0.40;;;24.40;50.80;;;;;;5128957;27;20349;-69
2022/06/17 17:00:14;;;;;;;1.85;0.40;;;24.30;50.80;;;;;;5128849;27;20406;-69
2022/06/17 17:02:40;;;;;;;0.60;0.50;;;24.30;51.00;;;;;;5127310;27;20047;-69
2022/06/17 17:05:07;;;;;;;1.45;0.65;;;24.30;51.00;;;;;;5127043;28;20095;-69
2022/06/17 17:07:33;;;;;;;1.10;0.45;;;24.40;51.10;;;;;;5128779;27;20027;-69
2022/06/17 17:09:59;;;;;;;0.80;0.40;;;24.30;51.10;;;;;;5127738;27;20083;-69
2022/06/17 17:12:25;;;;;;;0.80;0.40;;;24.30;51.10;;;;;;5128261;28;20456;-69